createdAt,value
2023-02-05T00:01:05.084Z,16.37
2023-02-05T00:03:31.916Z,16.27
2023-02-05T00:05:59.066Z,17.17
2023-02-05T00:08:27.494Z,15.93
2023-02-05T00:10:54.323Z,16.87
2023-02-05T00:13:21.108Z,17.63
2023-02-05T00:15:48.000Z,17.83
2023-02-05T00:18:14.811Z,18.10
2023-02-05T00:20:42.014Z,16.93
2023-02-05T00:23:08.727Z,16.57
2023-02-05T00:25:35.732Z,17.33
2023-02-05T00:28:02.822Z,16.77
2023-02-05T00:30:29.877Z,17.83
2023-02-05T00:32:56.602Z,18.47
2023-02-05T00:35:23.295Z,18.97
2023-02-05T00:37:49.993Z,18.27
2023-02-05T00:40:17.124Z,16.20
2023-02-05T00:42:43.920Z,17.40
2023-02-05T00:45:10.634Z,16.80
2023-02-05T00:47:37.414Z,16.70
2023-02-05T00:50:04.537Z,17.20
2023-02-05T00:52:31.318Z,18.10
2023-02-05T00:54:58.266Z,17.53
2023-02-05T00:57:25.046Z,18.97
2023-02-05T00:59:52.809Z,17.23
2023-02-05T01:02:25.133Z,16.90
2023-02-05T01:04:52.586Z,16.40
2023-02-05T01:07:20.565Z,17.77
2023-02-05T01:09:47.480Z,19.77
2023-02-05T01:12:15.104Z,19.20
2023-02-05T01:14:42.737Z,15.60
2023-02-05T01:17:09.450Z,16.97
2023-02-05T01:19:37.144Z,16.10
2023-02-05T01:22:05.064Z,16.43
2023-02-05T01:24:32.341Z,15.97
2023-02-05T01:26:59.476Z,15.37
2023-02-05T01:31:26.906Z,15.23
2023-02-05T01:34:00.108Z,15.00
2023-02-05T01:36:27.460Z,14.00
2023-02-05T01:38:54.404Z,16.07
2023-02-05T01:41:21.241Z,14.40
2023-02-05T01:44:08.512Z,14.43
2023-02-05T01:46:36.957Z,14.23
2023-02-05T01:49:05.827Z,15.20
2023-02-05T01:51:35.418Z,16.77
2023-02-05T01:54:02.527Z,18.33
2023-02-05T01:56:44.757Z,17.90
2023-02-05T01:59:24.457Z,16.40
2023-02-05T02:01:51.950Z,14.60
2023-02-05T02:04:50.056Z,14.47
2023-02-05T02:07:20.691Z,14.13
2023-02-05T02:09:49.291Z,15.43
2023-02-05T02:12:21.209Z,15.60
2023-02-05T02:14:51.638Z,16.70
2023-02-05T02:17:19.465Z,16.07
2023-02-05T02:20:06.101Z,15.17
2023-02-05T02:23:11.620Z,16.83
2023-02-05T02:25:38.832Z,16.50
2023-02-05T02:28:12.250Z,16.33
2023-02-05T02:30:57.056Z,15.70
2023-02-05T02:33:45.987Z,15.70
2023-02-05T02:36:28.931Z,16.53
2023-02-05T02:39:34.189Z,17.30
2023-02-05T02:42:10.167Z,16.10
2023-02-05T02:45:03.454Z,16.80
2023-02-05T02:47:36.671Z,16.70
2023-02-05T02:50:09.401Z,15.70
2023-02-05T02:52:40.233Z,16.40
2023-02-05T02:55:11.268Z,15.00
2023-02-05T02:57:43.352Z,15.70
2023-02-05T03:00:15.604Z,16.93
2023-02-05T03:02:45.350Z,15.93
2023-02-05T03:05:16.496Z,16.87
2023-02-05T03:07:48.711Z,15.17
2023-02-05T03:10:15.359Z,15.87
2023-02-05T03:12:42.284Z,16.43
2023-02-05T03:15:10.654Z,16.63
2023-02-05T03:17:38.775Z,15.50
2023-02-05T03:20:08.590Z,16.17
2023-02-05T03:22:35.479Z,14.57
2023-02-05T03:25:03.831Z,14.40
2023-02-05T03:27:30.713Z,13.67
2023-02-05T03:29:57.682Z,13.50
2023-02-05T03:32:46.972Z,13.40
2023-02-05T03:35:19.360Z,11.90
2023-02-05T03:38:24.436Z,12.83
2023-02-05T03:41:50.577Z,13.17
2023-02-05T03:44:23.368Z,11.83
2023-02-05T03:47:07.259Z,12.53
2023-02-05T03:49:58.010Z,11.80
2023-02-05T03:52:32.364Z,12.03
2023-02-05T03:55:22.351Z,10.67
2023-02-05T03:58:13.256Z,11.63
2023-02-05T04:00:41.329Z,11.67
2023-02-05T04:03:08.256Z,11.80
2023-02-05T04:05:35.344Z,12.20
2023-02-05T04:08:02.449Z,11.70
2023-02-05T04:10:29.224Z,12.13
2023-02-05T04:12:55.937Z,11.90
2023-02-05T04:15:22.625Z,11.60
2023-02-05T04:17:49.337Z,12.07
2023-02-05T04:20:16.130Z,11.73
2023-02-05T04:22:42.924Z,11.83
2023-02-05T04:25:09.738Z,11.20
2023-02-05T04:27:36.481Z,12.07
2023-02-05T04:30:03.650Z,12.20
2023-02-05T04:32:30.406Z,11.67
2023-02-05T04:34:57.099Z,12.33
2023-02-05T04:37:25.127Z,11.40
2023-02-05T04:39:51.907Z,11.87
2023-02-05T04:42:18.653Z,11.83
2023-02-05T04:44:45.398Z,13.07
2023-02-05T04:47:13.482Z,13.37
2023-02-05T04:49:40.995Z,12.03
2023-02-05T04:52:08.201Z,11.57
2023-02-05T04:54:36.500Z,11.43
2023-02-05T04:57:03.205Z,11.93
2023-02-05T04:59:31.575Z,12.20
2023-02-05T05:01:59.397Z,14.17
2023-02-05T05:04:26.484Z,12.90
2023-02-05T05:06:53.202Z,13.37
2023-02-05T05:09:23.938Z,14.43
2023-02-05T05:11:54.703Z,13.90
2023-02-05T05:14:21.862Z,13.40
2023-02-05T05:16:49.696Z,13.03
2023-02-05T05:19:16.781Z,13.47
2023-02-05T05:21:43.944Z,13.47
2023-02-05T05:24:10.656Z,12.43
2023-02-05T05:26:39.245Z,12.27
2023-02-05T05:29:06.274Z,11.97
2023-02-05T05:31:33.399Z,12.50
2023-02-05T05:34:00.147Z,10.63
2023-02-05T05:36:27.321Z,11.13
2023-02-05T05:38:54.427Z,10.80
2023-02-05T05:41:42.610Z,11.23
2023-02-05T05:44:09.956Z,11.33
2023-02-05T05:46:36.705Z,11.83
2023-02-05T05:49:04.111Z,11.93
2023-02-05T05:51:32.583Z,12.73
2023-02-05T05:53:59.399Z,12.00
2023-02-05T05:56:26.192Z,11.87
2023-02-05T05:58:53.056Z,11.60
2023-02-05T06:01:22.031Z,12.10
2023-02-05T06:03:49.280Z,11.90
2023-02-05T06:06:16.285Z,11.37
2023-02-05T06:08:43.148Z,12.00
2023-02-05T06:11:09.924Z,11.60
2023-02-05T06:13:36.714Z,11.50
2023-02-05T06:16:03.982Z,12.23
2023-02-05T06:18:31.010Z,13.37
2023-02-05T06:20:58.002Z,14.30
2023-02-05T06:23:24.773Z,14.17
2023-02-05T06:25:51.520Z,13.60
2023-02-05T06:28:18.549Z,12.70
2023-02-05T06:30:45.494Z,12.80
2023-02-05T06:33:12.981Z,12.60
2023-02-05T06:35:40.768Z,12.17
2023-02-05T06:38:07.988Z,12.13
2023-02-05T06:40:35.081Z,10.77
2023-02-05T06:43:01.916Z,11.30
2023-02-05T06:45:29.105Z,10.90
2023-02-05T06:47:57.517Z,10.70
2023-02-05T06:50:25.414Z,11.27
2023-02-05T06:52:52.308Z,10.63
2023-02-05T06:55:19.091Z,12.10
2023-02-05T06:57:45.837Z,10.93
2023-02-05T07:00:13.768Z,10.53
2023-02-05T07:02:40.562Z,11.07
2023-02-05T07:05:07.638Z,10.83
2023-02-05T07:07:34.455Z,10.37
2023-02-05T07:10:01.277Z,10.70
2023-02-05T07:12:28.198Z,10.73
2023-02-05T07:14:55.007Z,10.03
2023-02-05T07:17:21.748Z,11.40
2023-02-05T07:19:48.610Z,12.37
2023-02-05T07:22:16.114Z,11.50
2023-02-05T07:24:42.872Z,10.53
2023-02-05T07:27:09.608Z,13.33
2023-02-05T07:29:36.316Z,11.80
2023-02-05T07:32:03.195Z,10.90
2023-02-05T07:34:29.915Z,10.80
2023-02-05T07:36:56.649Z,11.00
2023-02-05T07:39:23.442Z,12.03
2023-02-05T07:41:51.305Z,12.23
2023-02-05T07:44:18.103Z,13.00
2023-02-05T07:46:44.848Z,11.90
2023-02-05T07:49:11.680Z,11.80
2023-02-05T07:51:38.695Z,11.20
2023-02-05T07:54:09.912Z,12.00
2023-02-05T07:56:36.772Z,12.00
2023-02-05T07:59:03.954Z,12.43
2023-02-05T08:01:30.712Z,14.43
2023-02-05T08:03:57.486Z,14.03
2023-02-05T08:06:24.309Z,13.63
2023-02-05T08:08:51.469Z,14.70
2023-02-05T08:11:19.015Z,14.40
2023-02-05T08:13:46.655Z,14.27
2023-02-05T08:16:17.923Z,14.50
2023-02-05T08:18:49.441Z,14.77
2023-02-05T08:21:16.957Z,16.40
2023-02-05T08:23:43.909Z,15.47
2023-02-05T08:26:10.727Z,15.67
2023-02-05T08:28:37.860Z,15.10
2023-02-05T08:31:16.180Z,14.60
2023-02-05T08:33:43.615Z,14.40
2023-02-05T08:36:11.082Z,15.23
2023-02-05T08:38:37.937Z,16.27
2023-02-05T08:41:12.416Z,14.40
2023-02-05T08:43:41.049Z,15.47
2023-02-05T08:46:08.794Z,17.07
2023-02-05T08:48:36.073Z,16.47
2023-02-05T08:51:03.729Z,17.87
2023-02-05T08:53:31.812Z,15.40
2023-02-05T08:56:00.246Z,15.00
2023-02-05T08:58:27.836Z,17.10
2023-02-05T09:01:01.637Z,17.20
2023-02-05T09:03:29.036Z,15.37
2023-02-05T09:05:55.877Z,16.37
2023-02-05T09:08:22.627Z,14.60
2023-02-05T09:10:49.749Z,16.20
2023-02-05T09:13:16.868Z,15.93
2023-02-05T09:15:48.270Z,15.20
2023-02-05T09:18:15.331Z,14.40
2023-02-05T09:20:47.253Z,15.40
2023-02-05T09:23:16.169Z,14.80
2023-02-05T09:25:43.542Z,15.87
2023-02-05T09:28:13.296Z,15.57
2023-02-05T09:30:42.759Z,14.47
2023-02-05T09:33:10.842Z,15.90
2023-02-05T09:35:37.986Z,16.27
2023-02-05T09:38:05.669Z,15.17
2023-02-05T09:40:35.384Z,15.40
2023-02-05T09:43:16.000Z,15.67
2023-02-05T09:45:56.958Z,14.97
2023-02-05T09:48:49.285Z,15.77
2023-02-05T09:51:25.688Z,17.97
2023-02-05T09:53:56.338Z,16.87
2023-02-05T09:56:24.953Z,16.20
2023-02-05T09:58:54.715Z,17.77
2023-02-05T10:01:40.543Z,16.17
2023-02-05T10:04:08.348Z,19.40
2023-02-05T10:06:40.907Z,17.47
2023-02-05T10:09:16.480Z,17.40
2023-02-05T10:12:14.968Z,17.50
2023-02-05T10:15:11.317Z,18.03
2023-02-05T10:18:03.311Z,17.83
2023-02-05T10:21:05.207Z,18.23
2023-02-05T10:23:57.041Z,19.17
2023-02-05T10:26:46.383Z,18.20
2023-02-05T10:29:27.011Z,15.63
2023-02-05T10:32:23.672Z,17.37
2023-02-05T10:35:02.815Z,15.93
2023-02-05T10:37:47.894Z,15.97
2023-02-05T10:40:21.110Z,17.40
2023-02-05T10:42:57.211Z,17.87
2023-02-05T10:45:27.569Z,16.23
2023-02-05T10:48:20.359Z,16.60
2023-02-05T10:50:59.879Z,15.87
2023-02-05T10:53:28.086Z,17.30
2023-02-05T10:55:56.293Z,15.07
2023-02-05T10:58:28.496Z,15.40
2023-02-05T11:00:55.623Z,16.57
2023-02-05T11:03:23.443Z,15.50
2023-02-05T11:05:51.041Z,15.33
2023-02-05T11:08:37.354Z,15.60
2023-02-05T11:11:05.495Z,15.90
2023-02-05T11:13:33.595Z,16.20
2023-02-05T11:16:05.068Z,15.87
2023-02-05T11:18:45.716Z,17.00
2023-02-05T11:21:13.330Z,15.67
2023-02-05T11:23:53.589Z,16.43
2023-02-05T11:26:23.565Z,14.97
2023-02-05T11:28:50.637Z,16.03
2023-02-05T11:31:31.157Z,16.03
2023-02-05T11:34:17.074Z,15.00
2023-02-05T11:36:55.556Z,16.53
2023-02-05T11:39:36.736Z,17.77
2023-02-05T11:42:09.573Z,16.90
2023-02-05T11:44:42.753Z,16.90
2023-02-05T11:47:09.616Z,17.27
2023-02-05T11:49:40.265Z,16.67
2023-02-05T11:52:14.842Z,17.43
2023-02-05T11:54:47.557Z,16.73
2023-02-05T11:57:20.084Z,17.03
2023-02-05T12:00:01.648Z,16.60
2023-02-05T12:02:28.602Z,16.57
2023-02-05T12:05:24.043Z,15.80
2023-02-05T12:08:27.560Z,17.07
2023-02-05T12:11:00.996Z,17.83
2023-02-05T12:13:45.552Z,17.50
2023-02-05T12:16:41.642Z,18.20
2023-02-05T12:19:20.378Z,24.10
2023-02-05T12:22:16.586Z,26.40
2023-02-05T12:24:51.223Z,20.73
2023-02-05T12:27:53.253Z,18.73
2023-02-05T12:30:55.076Z,22.43
2023-02-05T12:34:00.030Z,21.53
2023-02-05T12:36:52.560Z,21.67
2023-02-05T12:39:44.983Z,19.90
2023-02-05T12:42:39.249Z,21.00
2023-02-05T12:45:30.382Z,23.20
2023-02-05T12:48:57.260Z,21.90
2023-02-05T12:52:06.582Z,23.30
2023-02-05T12:54:59.480Z,22.40
2023-02-05T12:57:37.620Z,22.37
2023-02-05T13:00:12.111Z,22.87
2023-02-05T13:02:45.119Z,22.70
2023-02-05T13:05:29.959Z,22.70
2023-02-05T13:08:06.110Z,25.37
2023-02-05T13:10:57.286Z,25.10
2023-02-05T13:13:50.586Z,24.17
2023-02-05T13:16:19.901Z,24.47
2023-02-05T13:19:02.037Z,24.67
2023-02-05T13:21:48.322Z,25.40
2023-02-05T13:24:39.327Z,26.17
2023-02-05T13:27:40.404Z,22.80
2023-02-05T13:30:14.261Z,20.10
2023-02-05T13:32:44.308Z,22.60
2023-02-05T13:35:11.224Z,20.13
2023-02-05T13:38:15.959Z,20.80
2023-02-05T13:41:06.664Z,22.70
2023-02-05T13:43:39.434Z,19.00
2023-02-05T13:46:21.137Z,19.80
2023-02-05T13:49:12.436Z,18.67
2023-02-05T13:51:43.031Z,17.60
2023-02-05T13:54:15.760Z,19.07
2023-02-05T13:56:48.733Z,18.50
2023-02-05T13:59:22.848Z,18.93
2023-02-05T14:02:00.327Z,18.20
2023-02-05T14:04:40.430Z,17.43
2023-02-05T14:07:19.217Z,18.43
2023-02-05T14:09:56.460Z,20.03
2023-02-05T14:12:25.764Z,19.77
2023-02-05T14:15:19.754Z,18.47
2023-02-05T14:17:46.433Z,19.17
2023-02-05T14:20:35.570Z,20.13
2023-02-05T14:23:04.282Z,18.90
2023-02-05T14:25:38.232Z,20.07
2023-02-05T14:28:17.227Z,19.87
2023-02-05T14:30:58.857Z,20.20
2023-02-05T14:33:37.350Z,21.13
2023-02-05T14:36:22.857Z,21.70
2023-02-05T14:39:00.981Z,19.80
2023-02-05T14:41:40.170Z,20.70
2023-02-05T14:44:30.205Z,19.77
2023-02-05T14:47:21.749Z,20.80
2023-02-05T14:49:50.262Z,21.80
2023-02-05T14:52:27.918Z,21.20
2023-02-05T14:55:00.947Z,20.50
2023-02-05T14:57:45.278Z,20.70
2023-02-05T15:00:27.050Z,19.70
2023-02-05T15:03:05.803Z,19.70
2023-02-05T15:05:44.700Z,18.67
2023-02-05T15:08:16.966Z,17.60
2023-02-05T15:11:05.488Z,19.17
2023-02-05T15:13:33.584Z,18.50
2023-02-05T15:16:19.546Z,19.33
2023-02-05T15:18:58.949Z,17.40
2023-02-05T15:21:39.352Z,17.00
2023-02-05T15:24:20.965Z,20.75
2023-02-05T15:27:16.826Z,19.80
2023-02-05T15:29:57.192Z,19.40
2023-02-05T15:32:33.798Z,19.60
2023-02-05T15:35:05.547Z,19.30
2023-02-05T15:37:43.078Z,17.60
2023-02-05T15:40:18.704Z,19.10
2023-02-05T15:42:50.147Z,19.17
2023-02-05T15:45:29.565Z,17.10
2023-02-05T15:48:05.782Z,17.30
2023-02-05T15:50:35.036Z,17.60
2023-02-05T15:53:03.332Z,18.43
2023-02-05T15:55:30.670Z,17.17
2023-02-05T15:58:03.841Z,17.00
2023-02-05T16:00:32.206Z,16.17
2023-02-05T16:03:03.460Z,17.50
2023-02-05T16:05:31.839Z,17.10
2023-02-05T16:08:01.835Z,17.47
2023-02-05T16:10:30.513Z,16.20
2023-02-05T16:13:02.239Z,16.27
2023-02-05T16:15:41.257Z,18.77
2023-02-05T16:18:38.675Z,18.30
2023-02-05T16:21:24.570Z,16.17
2023-02-05T16:23:57.874Z,16.37
2023-02-05T16:26:31.861Z,17.80
2023-02-05T16:29:02.452Z,17.10
2023-02-05T16:31:30.115Z,17.37
2023-02-05T16:34:17.547Z,16.30
2023-02-05T16:36:47.816Z,18.63
2023-02-05T16:39:20.338Z,17.60
2023-02-05T16:42:26.133Z,17.20
2023-02-05T16:45:19.638Z,19.60
2023-02-05T16:48:22.711Z,17.97
2023-02-05T16:50:50.699Z,18.40
2023-02-05T16:53:26.876Z,20.80
2023-02-05T16:56:19.746Z,21.40
2023-02-05T16:58:50.918Z,18.93
2023-02-05T17:01:32.708Z,20.50
2023-02-05T17:03:59.586Z,22.00
2023-02-05T17:06:34.441Z,21.93
2023-02-05T17:09:04.854Z,22.17
2023-02-05T17:11:39.065Z,22.80
2023-02-05T17:14:24.443Z,21.97
2023-02-05T17:17:19.007Z,22.10
2023-02-05T17:20:05.442Z,23.40
2023-02-05T17:22:32.978Z,21.80
2023-02-05T17:24:59.874Z,22.77
2023-02-05T17:27:39.440Z,22.70
2023-02-05T17:30:13.754Z,22.57
2023-02-05T17:32:40.682Z,20.37
2023-02-05T17:35:17.581Z,21.10
2023-02-05T17:37:44.340Z,21.53
2023-02-05T17:40:15.149Z,22.30
2023-02-05T17:42:43.382Z,22.80
2023-02-05T17:45:20.211Z,22.60
2023-02-05T17:47:47.506Z,23.90
2023-02-05T17:50:14.514Z,22.90
2023-02-05T17:52:41.478Z,23.53
2023-02-05T17:55:13.454Z,23.30
2023-02-05T17:57:42.924Z,23.90
2023-02-05T18:00:23.121Z,23.50
2023-02-05T18:02:52.301Z,23.93
2023-02-05T18:05:20.328Z,22.97
2023-02-05T18:07:50.505Z,24.57
2023-02-05T18:10:23.228Z,24.40
2023-02-05T18:12:50.393Z,24.13
2023-02-05T18:15:17.342Z,23.93
2023-02-05T18:17:44.226Z,26.60
2023-02-05T18:20:11.985Z,25.63
2023-02-05T18:22:38.807Z,26.43
2023-02-05T18:25:06.914Z,25.63
2023-02-05T18:27:33.760Z,24.17
2023-02-05T18:30:00.800Z,28.07
2023-02-05T18:32:27.955Z,23.90
2023-02-05T18:34:54.736Z,23.83
2023-02-05T18:37:21.592Z,26.30
2023-02-05T18:39:48.881Z,25.17
2023-02-05T18:42:15.627Z,25.20
2023-02-05T18:44:42.589Z,26.30
2023-02-05T18:47:10.784Z,27.00
2023-02-05T18:49:37.853Z,27.20
2023-02-05T18:52:05.900Z,24.10
2023-02-05T18:54:32.808Z,25.87
2023-02-05T18:56:59.714Z,26.60
2023-02-05T18:59:26.508Z,25.73
2023-02-05T19:01:53.704Z,26.43
2023-02-05T19:04:21.029Z,28.67
2023-02-05T19:06:54.562Z,28.10
2023-02-05T19:09:23.489Z,27.50
2023-02-05T19:11:51.615Z,26.80
2023-02-05T19:14:20.792Z,26.57
2023-02-05T19:16:48.849Z,30.00
2023-02-05T19:19:21.224Z,28.07
2023-02-05T19:21:53.482Z,24.93
2023-02-05T19:24:21.458Z,27.43
2023-02-05T19:26:49.963Z,27.10
2023-02-05T19:29:18.889Z,26.87
2023-02-05T19:31:46.721Z,28.17
2023-02-05T19:34:13.886Z,24.20
2023-02-05T19:36:40.767Z,26.30
2023-02-05T19:39:09.202Z,24.60
2023-02-05T19:41:37.122Z,24.77
2023-02-05T19:44:06.664Z,25.70
2023-02-05T19:46:39.334Z,24.73
2023-02-05T19:49:17.631Z,21.97
2023-02-05T19:51:46.035Z,20.40
2023-02-05T19:54:14.885Z,20.47
2023-02-05T19:56:44.946Z,19.90
2023-02-05T19:59:12.671Z,20.63
2023-02-05T20:01:43.692Z,19.33
2023-02-05T20:04:11.859Z,19.30
2023-02-05T20:06:39.811Z,19.80
2023-02-05T20:09:10.873Z,19.40
2023-02-05T20:11:39.146Z,19.63
2023-02-05T20:14:07.094Z,20.00
2023-02-05T20:16:34.372Z,20.97
2023-02-05T20:19:01.898Z,21.77
2023-02-05T20:21:29.825Z,21.27
2023-02-05T20:23:57.470Z,20.50
2023-02-05T20:26:25.472Z,23.47
2023-02-05T20:29:14.709Z,23.43
2023-02-05T20:31:47.131Z,22.23
2023-02-05T20:34:20.447Z,21.93
2023-02-05T20:36:55.803Z,21.47
2023-02-05T20:39:24.473Z,22.23
2023-02-05T20:41:52.520Z,21.73
2023-02-05T20:44:19.578Z,19.20
2023-02-05T20:46:46.854Z,21.67
2023-02-05T20:49:14.142Z,19.70
2023-02-05T20:51:41.691Z,20.33
2023-02-05T20:54:08.972Z,22.40
2023-02-05T20:56:36.208Z,20.37
2023-02-05T20:59:05.961Z,20.93
2023-02-05T21:01:34.313Z,20.67
2023-02-05T21:04:03.028Z,22.13
2023-02-05T21:06:34.914Z,20.57
2023-02-05T21:09:02.401Z,23.47
2023-02-05T21:11:29.944Z,21.83
2023-02-05T21:13:57.980Z,22.30
2023-02-05T21:16:26.465Z,23.03
2023-02-05T21:18:53.738Z,23.43
2023-02-05T21:21:21.919Z,22.33
2023-02-05T21:23:49.024Z,21.20
2023-02-05T21:26:19.910Z,21.30
2023-02-05T21:28:46.739Z,20.37
2023-02-05T21:31:14.006Z,21.27
2023-02-05T21:33:40.830Z,20.40
2023-02-05T21:36:09.956Z,21.43
2023-02-05T21:38:41.584Z,22.27
2023-02-05T21:41:19.615Z,19.27
2023-02-05T21:43:50.849Z,20.97
2023-02-05T21:46:18.050Z,20.27
2023-02-05T21:48:48.803Z,19.97
2023-02-05T21:51:17.496Z,20.30
2023-02-05T21:53:44.593Z,18.93
2023-02-05T21:56:14.598Z,19.60
2023-02-05T21:58:42.161Z,19.37
2023-02-05T22:01:23.684Z,21.37
2023-02-05T22:03:53.396Z,19.67
2023-02-05T22:06:21.469Z,17.97
2023-02-05T22:08:50.496Z,19.10
2023-02-05T22:11:18.980Z,19.10
2023-02-05T22:13:49.184Z,19.87
2023-02-05T22:16:17.196Z,19.87
2023-02-05T22:18:44.017Z,20.03
2023-02-05T22:21:18.236Z,19.60
2023-02-05T22:23:50.875Z,20.87
2023-02-05T22:26:19.595Z,19.73
2023-02-05T22:28:46.928Z,18.83
2023-02-05T22:31:16.392Z,19.00
2023-02-05T22:33:45.018Z,20.97
2023-02-05T22:36:13.990Z,19.37
2023-02-05T22:38:42.159Z,19.20
2023-02-05T22:41:15.604Z,18.90
2023-02-05T22:43:42.568Z,18.60
2023-02-05T22:46:12.141Z,18.30
2023-02-05T22:48:41.118Z,19.33
2023-02-05T22:51:13.952Z,18.77
2023-02-05T22:53:40.726Z,20.87
2023-02-05T22:56:10.638Z,20.57
2023-02-05T22:58:42.088Z,21.07
2023-02-05T23:01:15.696Z,20.57
2023-02-05T23:03:43.502Z,20.23
2023-02-05T23:06:19.673Z,18.60
2023-02-05T23:09:14.569Z,20.20
2023-02-05T23:11:42.285Z,18.70
2023-02-05T23:14:09.597Z,18.13
2023-02-05T23:16:39.463Z,18.27
2023-02-05T23:19:13.321Z,18.57
2023-02-05T23:21:41.029Z,18.73
2023-02-05T23:24:08.840Z,19.93
2023-02-05T23:26:39.857Z,18.43
2023-02-05T23:29:07.645Z,17.53
2023-02-05T23:31:34.560Z,17.80
2023-02-05T23:34:01.712Z,15.90
2023-02-05T23:36:28.521Z,17.37
2023-02-05T23:38:55.221Z,18.07
2023-02-05T23:41:37.182Z,19.50
2023-02-05T23:44:05.772Z,18.23
2023-02-05T23:46:32.583Z,18.27
2023-02-05T23:48:59.324Z,18.73
2023-02-05T23:51:26.166Z,18.57
2023-02-05T23:53:53.297Z,18.53
2023-02-05T23:56:20.065Z,18.40
2023-02-05T23:58:47.092Z,17.87
